createdAt,value
2019-04-06T00:01:37.425Z,10.92
2019-04-06T00:04:08.717Z,10.94
2019-04-06T00:06:40.000Z,10.94
2019-04-06T00:09:12.095Z,11.02
2019-04-06T00:11:43.340Z,11.03
2019-04-06T00:14:15.506Z,11.18
2019-04-06T00:16:46.760Z,11.31
2019-04-06T00:19:20.867Z,11.32
2019-04-06T00:21:52.134Z,11.22
2019-04-06T00:24:23.373Z,10.94
2019-04-06T00:26:54.698Z,10.82
2019-04-06T00:29:26.552Z,10.73
2019-04-06T00:32:07.220Z,10.72
2019-04-06T00:34:38.986Z,10.71
2019-04-06T00:37:10.788Z,10.82
2019-04-06T00:39:42.453Z,10.72
2019-04-06T00:42:13.887Z,10.78
2019-04-06T00:44:45.161Z,10.66
2019-04-06T00:47:16.670Z,10.67
2019-04-06T00:49:48.457Z,10.54
2019-04-06T00:52:19.705Z,10.59
2019-04-06T00:54:51.158Z,10.68
2019-04-06T00:57:22.741Z,10.80
2019-04-06T00:59:53.997Z,10.62
2019-04-06T01:02:25.262Z,10.50
2019-04-06T01:04:56.489Z,10.46
2019-04-06T01:07:27.839Z,10.49
2019-04-06T01:09:59.017Z,10.52
2019-04-06T01:12:30.678Z,10.49
2019-04-06T01:15:03.724Z,10.49
2019-04-06T01:17:35.556Z,10.53
2019-04-06T01:20:07.976Z,10.53
2019-04-06T01:22:39.239Z,10.63
2019-04-06T01:25:11.113Z,10.58
2019-04-06T01:27:42.420Z,10.47
2019-04-06T01:30:14.077Z,10.52
2019-04-06T01:32:45.311Z,10.56
2019-04-06T01:35:20.117Z,10.49
2019-04-06T01:37:52.853Z,10.31
2019-04-06T01:40:24.192Z,10.31
2019-04-06T01:42:56.472Z,10.20
2019-04-06T01:45:27.672Z,10.08
2019-04-06T01:47:59.413Z,10.09
2019-04-06T01:50:31.151Z,10.31
2019-04-06T01:53:02.934Z,10.23
2019-04-06T01:55:34.995Z,10.27
2019-04-06T01:58:06.405Z,10.09
2019-04-06T02:00:39.324Z,10.08
2019-04-06T02:03:12.181Z,10.21
2019-04-06T02:05:43.556Z,10.26
2019-04-06T02:08:16.624Z,10.27
2019-04-06T02:10:48.153Z,10.25
2019-04-06T02:13:19.445Z,10.21
2019-04-06T02:15:52.162Z,10.27
2019-04-06T02:18:23.383Z,10.27
2019-04-06T02:20:54.643Z,10.29
2019-04-06T02:23:26.313Z,10.16
2019-04-06T02:25:57.558Z,10.16
2019-04-06T02:28:28.775Z,10.22
2019-04-06T02:31:12.748Z,10.16
2019-04-06T02:34:02.895Z,10.12
2019-04-06T02:36:44.002Z,9.94
2019-04-06T02:39:43.250Z,9.88
2019-04-06T02:42:20.701Z,9.72
2019-04-06T02:44:51.897Z,9.70
2019-04-06T02:47:23.523Z,9.64
2019-04-06T02:49:55.648Z,9.68
2019-04-06T02:52:26.917Z,9.65
2019-04-06T02:54:58.401Z,9.68
2019-04-06T02:57:29.658Z,9.64
2019-04-06T03:00:01.118Z,9.63
2019-04-06T03:02:33.055Z,9.57
2019-04-06T03:05:04.613Z,9.48
2019-04-06T03:07:36.817Z,9.50
2019-04-06T03:10:08.212Z,9.49
2019-04-06T03:12:40.466Z,9.46
2019-04-06T03:15:14.066Z,9.36
2019-04-06T03:17:45.921Z,9.42
2019-04-06T03:20:17.185Z,9.33
2019-04-06T03:22:48.451Z,9.33
2019-04-06T03:25:19.697Z,9.31
2019-04-06T03:27:50.926Z,9.33
2019-04-06T03:30:22.480Z,9.26
2019-04-06T03:32:53.720Z,9.28
2019-04-06T03:35:27.881Z,9.16
2019-04-06T03:37:59.757Z,9.09
2019-04-06T03:40:33.707Z,9.07
2019-04-06T03:43:04.946Z,8.99
2019-04-06T03:45:36.793Z,8.93
2019-04-06T03:48:08.185Z,8.95
2019-04-06T03:50:39.406Z,8.87
2019-04-06T03:53:11.780Z,8.83
2019-04-06T03:55:43.020Z,8.86
2019-04-06T03:58:14.200Z,8.91
2019-04-06T04:00:45.565Z,8.88
2019-04-06T04:03:16.718Z,8.94
2019-04-06T04:05:49.346Z,9.00
2019-04-06T04:08:21.077Z,8.95
2019-04-06T04:10:52.670Z,8.90
2019-04-06T04:13:24.483Z,9.01
2019-04-06T04:15:57.160Z,9.06
2019-04-06T04:18:28.668Z,8.98
2019-04-06T04:21:00.454Z,8.93
2019-04-06T04:23:31.660Z,9.06
2019-04-06T04:26:03.638Z,8.93
2019-04-06T04:28:35.040Z,9.00
2019-04-06T04:31:08.779Z,9.09
2019-04-06T04:33:39.950Z,9.09
2019-04-06T04:36:11.254Z,9.24
2019-04-06T04:38:42.931Z,9.09
2019-04-06T04:41:14.289Z,9.00
2019-04-06T04:43:45.513Z,8.97
2019-04-06T04:46:17.119Z,8.96
2019-04-06T04:48:49.627Z,9.12
2019-04-06T04:51:24.581Z,9.11
2019-04-06T04:53:56.097Z,9.09
2019-04-06T04:56:27.339Z,9.04
2019-04-06T04:58:58.663Z,9.00
2019-04-06T05:01:29.948Z,8.93
2019-04-06T05:04:01.626Z,8.83
2019-04-06T05:06:32.842Z,8.78
2019-04-06T05:09:05.533Z,8.68
2019-04-06T05:11:38.567Z,8.65
2019-04-06T05:14:45.343Z,8.70
2019-04-06T05:17:16.628Z,8.66
2019-04-06T05:19:47.881Z,8.56
2019-04-06T05:22:19.141Z,8.64
2019-04-06T05:24:50.300Z,8.65
2019-04-06T05:27:21.614Z,8.73
2019-04-06T05:29:53.450Z,8.65
2019-04-06T05:32:24.638Z,8.68
2019-04-06T05:34:58.028Z,8.68
2019-04-06T05:37:28.811Z,8.66
2019-04-06T05:40:00.978Z,8.73
2019-04-06T05:42:32.758Z,8.66
2019-04-06T05:45:05.251Z,8.76
2019-04-06T05:47:37.539Z,8.81
2019-04-06T05:50:08.888Z,8.90
2019-04-06T05:52:40.214Z,8.94
2019-04-06T05:55:11.724Z,9.03
2019-04-06T05:57:42.867Z,9.23
2019-04-06T06:00:14.280Z,9.37
2019-04-06T06:02:46.070Z,9.46
2019-04-06T06:05:17.796Z,9.62
2019-04-06T06:07:50.396Z,9.70
2019-04-06T06:10:21.869Z,9.74
2019-04-06T06:12:53.502Z,9.79
2019-04-06T06:15:24.891Z,9.73
2019-04-06T06:17:56.148Z,9.97
2019-04-06T06:20:27.380Z,10.17
2019-04-06T06:23:00.473Z,10.26
2019-04-06T06:25:31.839Z,10.12
2019-04-06T06:28:13.327Z,10.01
2019-04-06T06:30:36.019Z,10.01
2019-04-06T06:33:07.292Z,10.06
2019-04-06T06:35:39.019Z,10.07
2019-04-06T06:38:10.224Z,10.10
2019-04-06T06:40:44.658Z,10.23
2019-04-06T06:43:18.831Z,10.31
2019-04-06T06:45:50.391Z,10.35
2019-04-06T06:48:21.668Z,10.41
2019-04-06T06:50:55.994Z,10.39
2019-04-06T06:53:27.441Z,10.43
2019-04-06T06:56:00.331Z,10.42
2019-04-06T06:58:31.898Z,10.48
2019-04-06T07:01:04.167Z,10.56
2019-04-06T07:03:36.451Z,10.69
2019-04-06T07:06:09.146Z,10.71
2019-04-06T07:08:40.454Z,10.67
2019-04-06T07:11:29.043Z,10.67
2019-04-06T07:14:00.337Z,10.63
2019-04-06T07:16:31.914Z,10.83
2019-04-06T07:19:03.238Z,10.98
2019-04-06T07:21:34.605Z,10.90
2019-04-06T07:24:06.017Z,10.97
2019-04-06T07:26:41.076Z,11.31
2019-04-06T07:29:11.657Z,11.41
2019-04-06T07:31:45.184Z,11.34
2019-04-06T07:34:16.831Z,11.38
2019-04-06T07:36:48.158Z,11.73
2019-04-06T07:39:20.193Z,11.48
2019-04-06T07:41:51.599Z,11.55
2019-04-06T07:44:22.888Z,11.71
2019-04-06T07:46:54.060Z,11.79
2019-04-06T07:49:25.786Z,11.93
2019-04-06T07:51:57.038Z,11.92
2019-04-06T07:54:28.232Z,12.07
2019-04-06T07:56:59.415Z,12.09
2019-04-06T07:59:31.369Z,11.59
2019-04-06T08:02:02.898Z,11.91
2019-04-06T08:04:34.456Z,12.00
2019-04-06T08:07:05.855Z,12.11
2019-04-06T08:09:39.115Z,12.10
2019-04-06T08:12:11.103Z,12.29
2019-04-06T08:14:43.590Z,12.15
2019-04-06T08:17:24.281Z,12.31
2019-04-06T08:19:57.882Z,12.42
2019-04-06T08:22:31.097Z,12.28
2019-04-06T08:25:07.491Z,12.41
2019-04-06T08:27:42.110Z,12.44
2019-04-06T08:30:14.700Z,12.36
2019-04-06T08:32:47.567Z,12.09
2019-04-06T08:35:25.458Z,11.93
2019-04-06T08:37:51.942Z,11.90
2019-04-06T08:40:23.356Z,11.88
2019-04-06T08:42:54.703Z,11.98
2019-04-06T08:45:27.796Z,11.95
2019-04-06T08:47:59.445Z,12.11
2019-04-06T08:50:30.675Z,12.29
2019-04-06T08:53:02.041Z,12.14
2019-04-06T08:55:33.706Z,12.18
2019-04-06T08:58:05.147Z,12.43
2019-04-06T09:00:36.933Z,12.36
2019-04-06T09:03:14.142Z,12.51
2019-04-06T09:05:45.915Z,12.45
2019-04-06T09:08:18.247Z,12.65
2019-04-06T09:10:49.563Z,12.83
2019-04-06T09:13:21.094Z,12.68
2019-04-06T09:15:52.804Z,12.82
2019-04-06T09:18:24.121Z,13.13
2019-04-06T09:20:56.114Z,13.14
2019-04-06T09:23:27.361Z,13.01
2019-04-06T09:26:20.485Z,12.96
2019-04-06T09:28:53.265Z,13.04
2019-04-06T09:31:24.750Z,12.91
2019-04-06T09:33:56.992Z,12.94
2019-04-06T09:36:31.513Z,13.21
2019-04-06T09:39:03.456Z,13.39
2019-04-06T09:41:35.552Z,13.22
2019-04-06T09:44:09.291Z,13.42
2019-04-06T09:47:00.074Z,13.52
2019-04-06T09:49:57.848Z,13.33
2019-04-06T09:52:50.152Z,13.32
2019-04-06T09:55:39.289Z,13.65
2019-04-06T09:58:38.804Z,13.76
2019-04-06T10:01:22.341Z,13.53
2019-04-06T10:04:15.552Z,13.30
2019-04-06T10:07:15.164Z,13.42
2019-04-06T10:10:18.268Z,13.26
2019-04-06T10:13:00.562Z,13.24
2019-04-06T10:15:46.687Z,13.13
2019-04-06T10:18:47.163Z,13.07
2019-04-06T10:21:33.036Z,13.07
2019-04-06T10:24:28.094Z,13.31
2019-04-06T10:27:19.795Z,13.41
2019-04-06T10:30:13.422Z,13.44
2019-04-06T10:33:07.160Z,13.61
2019-04-06T10:35:55.237Z,13.73
2019-04-06T10:38:46.978Z,13.95
2019-04-06T10:41:51.555Z,14.12
2019-04-06T10:44:32.722Z,14.24
2019-04-06T10:47:27.527Z,14.49
2019-04-06T10:50:14.926Z,15.03
2019-04-06T10:53:02.295Z,15.42
2019-04-06T10:55:40.594Z,15.38
2019-04-06T10:58:36.018Z,14.93
2019-04-06T11:01:25.356Z,14.71
2019-04-06T11:04:25.015Z,14.74
2019-04-06T11:07:23.816Z,14.63
2019-04-06T11:10:12.812Z,14.49
2019-04-06T11:13:21.653Z,14.41
2019-04-06T11:16:21.272Z,14.47
2019-04-06T11:19:23.603Z,14.21
2019-04-06T11:22:23.359Z,14.37
2019-04-06T11:25:25.949Z,14.40
2019-04-06T11:28:17.872Z,14.61
2019-04-06T11:31:06.743Z,14.91
2019-04-06T11:34:00.054Z,14.87
2019-04-06T11:36:40.864Z,14.89
2019-04-06T11:39:34.041Z,15.01
2019-04-06T11:42:20.837Z,14.92
2019-04-06T11:45:14.305Z,15.05
2019-04-06T11:47:55.582Z,15.09
2019-04-06T11:50:45.739Z,15.30
2019-04-06T11:53:47.912Z,15.32
2019-04-06T11:56:41.483Z,15.48
2019-04-06T11:59:38.136Z,15.57
2019-04-06T12:02:26.363Z,15.61
2019-04-06T12:05:17.114Z,15.50
2019-04-06T12:08:11.393Z,15.51
2019-04-06T12:11:02.458Z,15.57
2019-04-06T12:13:56.519Z,15.65
2019-04-06T12:16:45.792Z,15.63
2019-04-06T12:19:40.799Z,15.50
2019-04-06T12:22:31.028Z,15.50
2019-04-06T12:25:39.730Z,15.44
2019-04-06T12:28:35.676Z,15.30
2019-04-06T12:31:17.527Z,14.98
2019-04-06T12:34:08.017Z,15.05
2019-04-06T12:36:49.168Z,15.01
2019-04-06T12:39:37.182Z,14.70
2019-04-06T12:42:27.114Z,14.62
2019-04-06T12:45:20.495Z,14.68
2019-04-06T12:48:12.234Z,14.83
2019-04-06T12:51:01.553Z,14.76
2019-04-06T12:53:51.768Z,14.70
2019-04-06T12:56:42.649Z,14.63
2019-04-06T12:59:36.133Z,14.53
2019-04-06T13:02:22.163Z,14.59
2019-04-06T13:05:28.188Z,14.53
2019-04-06T13:08:35.196Z,14.77
2019-04-06T13:11:34.321Z,14.75
2019-04-06T13:14:25.060Z,14.88
2019-04-06T13:17:19.072Z,15.03
2019-04-06T13:20:01.901Z,15.12
2019-04-06T13:22:53.308Z,15.13
2019-04-06T13:25:37.531Z,15.14
2019-04-06T13:28:27.858Z,15.15
2019-04-06T13:31:33.649Z,15.27
2019-04-06T13:34:17.424Z,15.21
2019-04-06T13:37:16.919Z,15.25
2019-04-06T13:40:07.239Z,15.25
2019-04-06T13:42:52.015Z,15.21
2019-04-06T13:45:49.270Z,15.30
2019-04-06T13:48:30.722Z,15.37
2019-04-06T13:51:08.307Z,15.33
2019-04-06T13:54:04.490Z,15.37
2019-04-06T13:56:55.587Z,15.44
2019-04-06T13:59:52.175Z,15.52
2019-04-06T14:02:35.852Z,15.67
2019-04-06T14:05:33.354Z,15.70
2019-04-06T14:08:24.039Z,15.80
2019-04-06T14:11:18.774Z,15.88
2019-04-06T14:14:09.497Z,15.85
2019-04-06T14:16:55.294Z,15.91
2019-04-06T14:19:46.145Z,15.95
2019-04-06T14:22:36.286Z,16.09
2019-04-06T14:28:39.628Z,16.28
2019-04-06T14:31:29.925Z,16.47
2019-04-06T14:34:16.099Z,16.40
2019-04-06T14:37:08.293Z,16.33
2019-04-06T14:39:49.554Z,16.31
2019-04-06T14:42:34.079Z,16.41
2019-04-06T14:45:29.284Z,16.55
2019-04-06T14:48:09.394Z,16.68
2019-04-06T14:51:00.223Z,16.78
2019-04-06T14:53:39.179Z,16.85
2019-04-06T14:56:28.045Z,16.93
2019-04-06T14:59:22.401Z,16.99
2019-04-06T15:02:13.124Z,16.63
2019-04-06T15:05:02.394Z,16.66
2019-04-06T15:07:51.262Z,16.66
2019-04-06T15:10:42.024Z,16.57
2019-04-06T15:13:24.660Z,16.54
2019-04-06T15:16:21.187Z,16.64
2019-04-06T15:19:08.510Z,16.68
2019-04-06T15:22:09.248Z,16.73
2019-04-06T15:24:55.755Z,16.72
2019-04-06T15:28:00.698Z,16.65
2019-04-06T15:30:52.929Z,16.63
2019-04-06T15:33:43.738Z,16.57
2019-04-06T15:36:22.143Z,16.45
2019-04-06T15:39:03.190Z,16.32
2019-04-06T15:41:56.309Z,16.10
2019-04-06T15:44:45.298Z,16.00
2019-04-06T15:47:36.580Z,16.02
2019-04-06T15:50:16.214Z,15.93
2019-04-06T15:53:07.755Z,15.87
2019-04-06T15:55:44.379Z,15.88
2019-04-06T15:58:40.967Z,15.78
2019-04-06T16:01:22.734Z,15.68
2019-04-06T16:04:12.564Z,15.57
2019-04-06T16:06:54.210Z,15.53
2019-04-06T16:09:43.420Z,15.47
2019-04-06T16:12:22.792Z,15.37
2019-04-06T16:15:25.588Z,15.38
2019-04-06T16:18:14.769Z,15.42
2019-04-06T16:21:05.178Z,15.37
2019-04-06T16:24:04.921Z,15.28
2019-04-06T16:27:01.285Z,15.25
2019-04-06T16:29:51.404Z,15.15
2019-04-06T16:32:52.051Z,15.05
2019-04-06T16:35:47.108Z,15.02
2019-04-06T16:38:41.604Z,14.87
2019-04-06T16:41:31.274Z,14.78
2019-04-06T16:44:19.833Z,14.68
2019-04-06T16:47:08.505Z,14.54
2019-04-06T16:50:01.023Z,14.52
2019-04-06T16:52:50.365Z,14.40
2019-04-06T16:55:39.379Z,14.35
2019-04-06T16:58:32.918Z,14.33
2019-04-06T17:01:21.886Z,14.38
2019-04-06T17:04:05.344Z,14.20
2019-04-06T17:07:05.539Z,14.08
2019-04-06T17:10:09.155Z,14.02
2019-04-06T17:12:58.076Z,14.00
2019-04-06T17:15:52.608Z,13.97
2019-04-06T17:18:43.306Z,13.80
2019-04-06T17:21:32.222Z,13.76
2019-04-06T17:24:12.250Z,13.67
2019-04-06T17:27:06.728Z,13.54
2019-04-06T17:29:54.089Z,13.53
2019-04-06T17:32:50.511Z,13.53
2019-04-06T17:35:39.205Z,13.46
2019-04-06T17:38:29.384Z,13.42
2019-04-06T17:41:36.306Z,13.43
2019-04-06T17:44:26.772Z,13.44
2019-04-06T17:47:16.117Z,13.25
2019-04-06T17:50:07.929Z,13.26
2019-04-06T17:52:59.084Z,13.17
2019-04-06T17:56:03.531Z,13.07
2019-04-06T17:59:19.299Z,12.95
2019-04-06T18:02:14.070Z,12.84
2019-04-06T18:05:03.349Z,12.73
2019-04-06T18:08:14.679Z,12.58
2019-04-06T18:11:03.200Z,12.41
2019-04-06T18:13:48.814Z,12.34
2019-04-06T18:16:23.277Z,12.24
2019-04-06T18:18:57.677Z,12.21
2019-04-06T18:21:29.339Z,12.14
2019-04-06T18:24:01.263Z,12.06
2019-04-06T18:26:37.020Z,12.03
2019-04-06T18:29:15.051Z,11.98
2019-04-06T18:31:55.152Z,11.96
2019-04-06T18:34:27.382Z,11.91
2019-04-06T18:37:21.543Z,11.85
2019-04-06T18:39:54.724Z,11.77
2019-04-06T18:42:26.163Z,11.75
2019-04-06T18:44:58.066Z,11.76
2019-04-06T18:47:32.932Z,11.64
2019-04-06T18:50:05.419Z,11.58
2019-04-06T18:52:40.284Z,11.63
2019-04-06T18:55:14.267Z,11.54
2019-04-06T18:57:46.965Z,11.54
2019-04-06T19:00:20.759Z,11.38
2019-04-06T19:02:53.799Z,11.30
2019-04-06T19:05:25.434Z,11.29
2019-04-06T19:07:57.568Z,11.24
2019-04-06T19:10:35.122Z,11.18
2019-04-06T19:13:07.165Z,11.15
2019-04-06T19:15:38.875Z,11.09
2019-04-06T19:18:11.489Z,11.12
2019-04-06T19:20:43.690Z,11.07
2019-04-06T19:23:16.547Z,11.05
2019-04-06T19:25:49.124Z,11.00
2019-04-06T19:28:22.357Z,10.91
2019-04-06T19:30:54.633Z,10.97
2019-04-06T19:33:28.562Z,10.88
2019-04-06T19:36:03.169Z,10.84
2019-04-06T19:39:21.157Z,10.80
2019-04-06T19:41:58.637Z,10.70
2019-04-06T19:44:32.455Z,10.66
2019-04-06T19:47:06.596Z,10.61
2019-04-06T19:49:40.664Z,10.56
2019-04-06T19:52:12.954Z,10.43
2019-04-06T19:54:45.724Z,10.47
2019-04-06T19:57:18.360Z,10.47
2019-04-06T19:59:52.623Z,10.46
2019-04-06T20:02:25.890Z,10.49
2019-04-06T20:04:59.135Z,10.42
2019-04-06T20:07:31.834Z,10.37
2019-04-06T20:10:05.120Z,10.41
2019-04-06T20:12:38.938Z,10.45
2019-04-06T20:15:14.322Z,10.37
2019-04-06T20:17:47.521Z,10.36
2019-04-06T20:20:19.985Z,10.29
2019-04-06T20:22:52.751Z,10.26
2019-04-06T20:25:25.781Z,10.20
2019-04-06T20:27:58.748Z,10.06
2019-04-06T20:30:34.141Z,10.03
2019-04-06T20:33:08.237Z,10.01
2019-04-06T20:35:41.205Z,9.96
2019-04-06T20:38:13.382Z,9.92
2019-04-06T20:40:45.392Z,9.92
2019-04-06T20:43:17.624Z,9.93
2019-04-06T20:45:51.077Z,10.00
2019-04-06T20:48:23.304Z,9.97
2019-04-06T20:50:56.164Z,10.05
2019-04-06T20:53:30.723Z,10.04
2019-04-06T20:56:03.274Z,10.06
2019-04-06T20:58:35.968Z,10.11
2019-04-06T21:01:08.889Z,10.00
2019-04-06T21:03:41.499Z,9.99
2019-04-06T21:06:13.783Z,9.97
2019-04-06T21:08:48.086Z,9.97
2019-04-06T21:11:20.562Z,9.98
2019-04-06T21:13:56.220Z,10.06
2019-04-06T21:16:28.149Z,10.07
2019-04-06T21:19:01.268Z,10.00
2019-04-06T21:21:35.449Z,9.93
2019-04-06T21:24:08.049Z,9.94
2019-04-06T21:26:40.399Z,9.88
2019-04-06T21:29:36.780Z,9.92
2019-04-06T21:32:17.186Z,9.92
2019-04-06T21:34:51.458Z,9.89
2019-04-06T21:37:24.247Z,9.71
2019-04-06T21:39:57.833Z,9.64
2019-04-06T21:42:31.751Z,9.64
2019-04-06T21:45:04.055Z,9.67
2019-04-06T21:47:36.576Z,9.70
2019-04-06T21:50:09.088Z,9.57
2019-04-06T21:52:44.020Z,9.62
2019-04-06T21:55:16.293Z,9.65
2019-04-06T21:57:49.304Z,9.63
2019-04-06T22:00:32.532Z,9.64
2019-04-06T22:03:07.072Z,9.61
2019-04-06T22:05:38.680Z,9.56
2019-04-06T22:08:10.977Z,9.58
2019-04-06T22:10:43.485Z,9.53
2019-04-06T22:13:16.484Z,9.58
2019-04-06T22:15:49.210Z,9.51
2019-04-06T22:18:22.149Z,9.46
2019-04-06T22:20:54.916Z,9.36
2019-04-06T22:23:38.766Z,9.22
2019-04-06T22:26:01.556Z,9.28
2019-04-06T22:28:34.963Z,9.31
2019-04-06T22:31:09.885Z,9.31
2019-04-06T22:33:42.218Z,9.24
2019-04-06T22:36:15.889Z,9.26
2019-04-06T22:38:49.211Z,9.25
2019-04-06T22:41:21.879Z,9.31
2019-04-06T22:43:53.919Z,9.39
2019-04-06T22:48:18.509Z,9.43
2019-04-06T22:50:52.491Z,9.35
2019-04-06T22:53:24.986Z,9.33
2019-04-06T22:55:57.503Z,9.29
2019-04-06T22:58:33.438Z,9.23
2019-04-06T23:01:11.019Z,9.21
2019-04-06T23:04:12.052Z,9.16
2019-04-06T23:06:58.963Z,9.22
2019-04-06T23:09:31.307Z,9.23
2019-04-06T23:12:03.958Z,9.27
2019-04-06T23:14:36.757Z,9.24
2019-04-06T23:17:10.237Z,9.20
2019-04-06T23:19:43.210Z,9.17
2019-04-06T23:22:15.874Z,9.12
2019-04-06T23:24:48.288Z,9.05
2019-04-06T23:27:21.668Z,9.00
2019-04-06T23:29:55.473Z,9.03
2019-04-06T23:32:27.535Z,9.00
2019-04-06T23:35:01.998Z,9.05
2019-04-06T23:37:34.700Z,9.00
2019-04-06T23:40:08.662Z,8.91
2019-04-06T23:42:40.854Z,8.84
2019-04-06T23:45:15.792Z,8.80
2019-04-06T23:47:48.346Z,8.82
2019-04-06T23:50:20.381Z,8.86
2019-04-06T23:52:52.849Z,8.84
2019-04-06T23:55:25.116Z,8.84
2019-04-06T23:57:56.421Z,8.81
